地図

経路データ

SID SEASON NUMBER BASIN SUBBASIN NAME ISO_TIME NATURE LAT LON WMO_WIND WMO_PRES WMO_AGENCY TRACK_TYPE DIST2LAND LANDFALL IFLAG USA_AGENCY USA_ATCF_ID USA_LAT USA_LON USA_RECORD USA_STATUS USA_WIND USA_PRES USA_SSHS USA_R34_NE USA_R34_SE USA_R34_SW USA_R34_NW USA_R50_NE USA_R50_SE USA_R50_SW USA_R50_NW USA_R64_NE USA_R64_SE USA_R64_SW USA_R64_NW USA_POCI USA_ROCI USA_RMW USA_EYE TOKYO_LAT TOKYO_LON TOKYO_GRADE TOKYO_WIND TOKYO_PRES TOKYO_R50_DIR TOKYO_R50_LONG TOKYO_R50_SHORT TOKYO_R30_DIR TOKYO_R30_LONG TOKYO_R30_SHORT TOKYO_LAND CMA_LAT CMA_LON CMA_CAT CMA_WIND CMA_PRES HKO_LAT HKO_LON HKO_CAT HKO_WIND HKO_PRES NEWDELHI_LAT NEWDELHI_LON NEWDELHI_GRADE NEWDELHI_WIND NEWDELHI_PRES NEWDELHI_CI NEWDELHI_DP NEWDELHI_POCI REUNION_LAT REUNION_LON REUNION_TYPE REUNION_WIND REUNION_PRES REUNION_TNUM REUNION_CI REUNION_RMW REUNION_R34_NE REUNION_R34_SE REUNION_R34_SW REUNION_R34_NW REUNION_R50_NE REUNION_R50_SE REUNION_R50_SW REUNION_R50_NW REUNION_R64_NE REUNION_R64_SE REUNION_R64_SW REUNION_R64_NW BOM_LAT BOM_LON BOM_TYPE BOM_WIND BOM_PRES BOM_TNUM BOM_CI BOM_RMW BOM_R34_NE BOM_R34_SE BOM_R34_SW BOM_R34_NW BOM_R50_NE BOM_R50_SE BOM_R50_SW BOM_R50_NW BOM_R64_NE BOM_R64_SE BOM_R64_SW BOM_R64_NW BOM_ROCI BOM_POCI BOM_EYE BOM_POS_METHOD BOM_PRES_METHOD NADI_LAT NADI_LON NADI_CAT NADI_WIND NADI_PRES WELLINGTON_LAT WELLINGTON_LON WELLINGTON_WIND WELLINGTON_PRES DS824_LAT DS824_LON DS824_STAGE DS824_WIND DS824_PRES TD9636_LAT TD9636_LON TD9636_STAGE TD9636_WIND TD9636_PRES TD9635_LAT TD9635_LON TD9635_WIND TD9635_PRES TD9635_ROCI NEUMANN_LAT NEUMANN_LON NEUMANN_CLASS NEUMANN_WIND NEUMANN_PRES MLC_LAT MLC_LON MLC_CLASS MLC_WIND MLC_PRES USA_GUST BOM_GUST BOM_GUST_PER REUNION_GUST REUNION_GUST_PER USA_SEAHGT USA_SEARAD_NE USA_SEARAD_SE USA_SEARAD_SW USA_SEARAD_NW STORM_SPEED STORM_DIR
1897266N17090 1897 31 NI BB NOT_NAMED 1897-09-23 00:00:00 TS 16.7000 89.9000 main 465 465 _________O____ -1 16.7000 89.9000 TC 30 9 278
1897266N17090 1897 31 NI BB NOT_NAMED 1897-09-23 03:00:00 TS 16.7654 89.4285 main 477 438 _________PO___ -1 16.7981 89.1928 TC 30 16.7000 89.9000 1 11 278
1897266N17090 1897 31 NI BB NOT_NAMED 1897-09-23 06:00:00 TS 16.8547 88.7969 main 429 385 _________OP___ -1 16.9000 88.5000 TC 30 16.7868 89.2421 1 12 279
1897266N17090 1897 31 NI BB NOT_NAMED 1897-09-23 09:00:00 TS 16.9632 88.1415 main 380 344 _________PP___ -1 17.0195 87.8221 TC 30 16.8882 88.5673 1 13 281
1897266N17090 1897 31 NI BB NOT_NAMED 1897-09-23 12:00:00 TS 17.1103 87.4795 main 344 278 _________OP___ -1 17.2000 87.1000 TC 30 17.0205 87.8590 1 14 285
1897266N17090 1897 31 NI BB NOT_NAMED 1897-09-23 15:00:00 TS 17.3350 86.6862 main 278 192 _________PO___ -1 17.4699 86.2725 TC 30 17.2000 87.1000 1 16 288
1897266N17090 1897 31 NI BB NOT_NAMED 1897-09-23 18:00:00 TS 17.6196 85.8403 main 184 99 _________OP___ -1 17.8000 85.4000 TC 30 17.4392 86.2806 1 17 290
1897266N17090 1897 31 NI BB NOT_NAMED 1897-09-23 21:00:00 TS 17.9325 84.9819 main 99 10 _________PP___ -1 18.1272 84.5421 TC 30 17.7378 85.4217 1 18 293
1897266N17090 1897 31 NI BB NOT_NAMED 1897-09-24 00:00:00 TS 18.2962 84.1259 main 0 0 _________OP___ -1 18.5000 83.7000 TC 30 18.0923 84.5519 1 18 296
1897266N17090 1897 31 NI BB NOT_NAMED 1897-09-24 03:00:00 TS 18.7098 83.2923 main 0 0 _________PO___ -1 18.9197 82.8846 TC 30 18.5000 83.7000 1 18 299
1897266N17090 1897 31 NI BB NOT_NAMED 1897-09-24 06:00:00 TS 19.1709 82.4697 main 0 0 _________OP___ -1 19.4000 82.1000 TC 30 18.9417 82.8395 1 18 302
1897266N17090 1897 31 NI BB NOT_NAMED 1897-09-24 09:00:00 TS 19.6878 81.6534 main 0 0 _________PP___ -1 19.9426 81.2977 TC 30 19.4331 82.0091 1 18 306
1897266N17090 1897 31 NI BB NOT_NAMED 1897-09-24 12:00:00 TS 20.2289 80.9244 main 0 0 _________OP___ -1 20.5000 80.6000 TC 30 19.9578 81.2489 1 16 311
1897266N17090 1897 31 NI BB NOT_NAMED 1897-09-24 15:00:00 TS 20.7460 80.3409 main 0 0 _________PO___ -1 20.9921 80.0818 TC 30 20.5000 80.6000 1 14 317
1897266N17090 1897 31 NI BB NOT_NAMED 1897-09-24 18:00:00 TS 21.2548 79.8918 main 0 0 _________OP___ -1 21.5000 79.7000 TC 30 21.0095 80.0836 1 13 324
1897266N17090 1897 31 NI BB NOT_NAMED 1897-09-24 21:00:00 TS 21.8039 79.5260 main 0 0 _________PP___ -1 22.0698 79.3696 TC 30 21.5380 79.6825 1 13 332
1897266N17090 1897 31 NI BB NOT_NAMED 1897-09-25 00:00:00 TS 22.3988 79.2326 main 0 0 _________OP___ -1 22.7000 79.1000 TC 30 22.0976 79.3652 1 13 337
1897266N17090 1897 31 NI BB NOT_NAMED 1897-09-25 03:00:00 TS 23.0425 78.9674 main 0 0 _________PO___ -1 23.3850 78.8348 TC 30 22.7000 79.1000 1 14 340
1897266N17090 1897 31 NI BB NOT_NAMED 1897-09-25 06:00:00 TS 23.7364 78.6998 main 0 0 _________OP___ -1 24.1000 78.6000 TC 30 23.3728 78.7996 1 15 342
1897266N17090 1897 31 NI BB NOT_NAMED 1897-09-25 09:00:00 TS 24.4499 78.4578 main 0 0 _________PP___ -1 24.8150 78.3701 TC 30 24.0847 78.5456 1 15 345
1897266N17090 1897 31 NI BB NOT_NAMED 1897-09-25 12:00:00 TS 25.1521 78.2718 main 0 0 _________OP___ -1 25.5000 78.2000 TC 30 24.8043 78.3437 1 14 349
1897266N17090 1897 31 NI BB NOT_NAMED 1897-09-25 15:00:00 TS 25.8075 78.1598 main 0 0 _________PO___ -1 26.1149 78.1197 TC 30 25.5000 78.2000 1 12 353
1897266N17090 1897 31 NI BB NOT_NAMED 1897-09-25 18:00:00 TS 26.3846 78.1099 main 0 0 _________OP___ -1 26.7000 78.1000 TC 30 26.1481 78.1174 1 12 357
1897266N17090 1897 31 NI BB NOT_NAMED 1897-09-25 21:00:00 TS 26.9710 78.0894 main 0 0 _________PP___ -1 27.2950 78.0976 TC 30 26.7549 78.0839 1 11 359
1897266N17090 1897 31 NI BB NOT_NAMED 1897-09-26 00:00:00 TS 27.5229 78.0890 main 0 0 _________OP___ -1 27.9000 78.1000 TC 30 27.3343 78.0835 1 9 0
1897266N17090 1897 31 NI BB NOT_NAMED 1897-09-26 03:00:00 NR 27.9000 78.1000 main 0 __________O___ -1 TC 27.9000 78.1000 1 8 2

IBTrACS Databaseについて

本データベースは、米国NOAAが公開する1842年以降の世界の熱帯低気圧のベストトラックデータアーカイブInternational Best Track Archive for Climate Stewardship (IBTrACS)を、ウェブで閲覧しやすい形式に変換したものです。

最終更新日:2021-10-08